createdAt,value
2022-11-16T00:01:57.403Z,89.08
2022-11-16T00:04:25.641Z,89.40
2022-11-16T00:06:53.856Z,89.29
2022-11-16T00:09:27.019Z,89.19
2022-11-16T00:11:58.059Z,89.17
2022-11-16T00:14:28.926Z,89.41
2022-11-16T00:16:57.706Z,89.31
2022-11-16T00:19:26.676Z,89.29
2022-11-16T00:21:55.389Z,89.18
2022-11-16T00:24:24.444Z,89.54
2022-11-16T00:26:54.660Z,89.50
2022-11-16T00:29:25.250Z,89.49
2022-11-16T00:31:54.172Z,89.49
2022-11-16T00:34:23.169Z,89.48
2022-11-16T00:36:51.427Z,89.25
2022-11-16T00:39:19.958Z,89.50
2022-11-16T00:41:49.045Z,89.43
2022-11-16T00:44:17.939Z,89.61
2022-11-16T00:46:47.751Z,89.71
2022-11-16T00:49:16.166Z,89.45
2022-11-16T00:51:44.352Z,89.44
2022-11-16T00:54:12.528Z,89.30
2022-11-16T00:56:40.758Z,89.59
2022-11-16T00:59:09.118Z,89.49
2022-11-16T01:01:37.258Z,89.32
2022-11-16T01:04:06.926Z,89.46
2022-11-16T01:06:35.062Z,89.29
2022-11-16T01:09:03.293Z,89.50
2022-11-16T01:11:48.910Z,89.51
2022-11-16T01:14:17.346Z,89.60
2022-11-16T01:16:45.453Z,89.46
2022-11-16T01:19:14.971Z,89.44
2022-11-16T01:21:43.117Z,89.44
2022-11-16T01:24:11.230Z,89.14
2022-11-16T01:26:39.373Z,89.28
2022-11-16T01:29:07.506Z,89.18
2022-11-16T01:31:35.748Z,89.49
2022-11-16T01:34:04.083Z,89.55
2022-11-16T01:36:35.474Z,89.26
2022-11-16T01:39:04.314Z,89.51
2022-11-16T01:41:32.475Z,89.28
2022-11-16T01:44:02.533Z,89.38
2022-11-16T01:46:31.141Z,89.52
2022-11-16T01:49:03.282Z,89.46
2022-11-16T01:51:33.513Z,89.35
2022-11-16T01:54:02.770Z,89.19
2022-11-16T01:56:32.958Z,89.39
2022-11-16T01:59:01.130Z,89.38
2022-11-16T02:01:29.318Z,89.35
2022-11-16T02:03:57.565Z,89.67
2022-11-16T02:06:39.145Z,89.38
2022-11-16T02:09:37.439Z,89.35
2022-11-16T02:12:17.376Z,89.43
2022-11-16T02:14:59.533Z,89.38
2022-11-16T02:17:35.498Z,89.36
2022-11-16T02:20:44.492Z,89.08
2022-11-16T02:23:47.471Z,89.33
2022-11-16T02:26:27.052Z,89.33
2022-11-16T02:29:15.208Z,89.18
2022-11-16T02:31:49.029Z,89.21
2022-11-16T02:34:18.221Z,89.07
2022-11-16T02:36:49.884Z,89.16
2022-11-16T02:39:21.079Z,89.12
2022-11-16T02:41:50.933Z,88.94
2022-11-16T02:44:22.723Z,88.89
2022-11-16T02:46:57.293Z,89.02
2022-11-16T02:49:26.828Z,88.99
2022-11-16T02:51:55.614Z,89.12
2022-11-16T02:54:24.995Z,88.98
2022-11-16T02:56:56.718Z,89.06
2022-11-16T02:59:31.231Z,89.07
2022-11-16T03:02:04.026Z,89.18
2022-11-16T03:04:37.066Z,89.07
2022-11-16T03:07:07.260Z,89.06
2022-11-16T03:09:37.813Z,89.19
2022-11-16T03:12:08.998Z,89.03
2022-11-16T03:14:43.104Z,89.00
2022-11-16T03:17:15.252Z,89.12
2022-11-16T03:19:45.605Z,89.08
2022-11-16T03:22:16.852Z,89.09
2022-11-16T03:24:45.226Z,89.27
2022-11-16T03:27:20.543Z,89.17
2022-11-16T03:29:57.695Z,89.18
2022-11-16T03:32:29.533Z,89.06
2022-11-16T03:35:00.862Z,89.00
2022-11-16T03:37:30.771Z,89.35
2022-11-16T03:40:01.191Z,89.27
2022-11-16T03:42:29.729Z,89.23
2022-11-16T03:44:59.796Z,89.16
2022-11-16T03:47:27.945Z,89.06
2022-11-16T03:49:56.070Z,89.16
2022-11-16T03:52:24.376Z,89.23
2022-11-16T03:54:52.533Z,89.10
2022-11-16T03:57:20.670Z,89.27
2022-11-16T03:59:48.798Z,89.22
2022-11-16T04:02:18.273Z,89.29
2022-11-16T04:05:03.906Z,89.20
2022-11-16T04:07:49.510Z,89.12
2022-11-16T04:10:35.145Z,89.25
2022-11-16T04:13:36.310Z,89.08
2022-11-16T04:16:21.841Z,89.23
2022-11-16T04:19:08.864Z,89.39
2022-11-16T04:21:56.975Z,89.22
2022-11-16T04:24:27.992Z,89.08
2022-11-16T04:27:16.582Z,89.36
2022-11-16T04:29:44.882Z,89.15
2022-11-16T04:32:30.764Z,89.35
2022-11-16T04:35:18.026Z,89.28
2022-11-16T04:37:53.353Z,89.43
2022-11-16T04:40:23.693Z,89.30
2022-11-16T04:42:53.071Z,89.08
2022-11-16T04:45:38.996Z,89.22
2022-11-16T04:48:07.772Z,89.25
2022-11-16T04:50:37.720Z,89.29
2022-11-16T04:53:06.475Z,89.46
2022-11-16T04:55:35.078Z,89.32
2022-11-16T04:58:03.509Z,89.49
2022-11-16T05:00:31.954Z,89.41
2022-11-16T05:03:01.778Z,89.20
2022-11-16T05:05:30.216Z,89.61
2022-11-16T05:07:59.752Z,89.30
2022-11-16T05:10:27.932Z,89.19
2022-11-16T05:12:56.033Z,89.29
2022-11-16T05:15:24.224Z,89.21
2022-11-16T05:17:54.864Z,89.29
2022-11-16T05:20:40.491Z,89.50
2022-11-16T05:23:30.647Z,89.47
2022-11-16T05:25:58.760Z,89.48
2022-11-16T05:28:26.863Z,89.33
2022-11-16T05:30:54.994Z,89.28
2022-11-16T05:33:23.176Z,89.27
2022-11-16T05:35:51.718Z,89.35
2022-11-16T05:38:21.272Z,89.46
2022-11-16T05:40:49.413Z,89.22
2022-11-16T05:43:17.547Z,89.44
2022-11-16T05:45:45.673Z,89.65
2022-11-16T05:48:13.817Z,89.39
2022-11-16T05:50:43.232Z,89.44
2022-11-16T05:53:11.676Z,89.63
2022-11-16T05:55:41.150Z,89.73
2022-11-16T05:58:09.271Z,89.64
2022-11-16T06:00:37.401Z,89.46
2022-11-16T06:03:05.674Z,89.56
2022-11-16T06:05:40.246Z,89.58
2022-11-16T06:08:09.034Z,89.64
2022-11-16T06:10:37.904Z,89.79
2022-11-16T06:13:07.390Z,89.91
2022-11-16T06:15:38.254Z,89.94
2022-11-16T06:18:06.919Z,90.13
2022-11-16T06:20:35.603Z,89.79
2022-11-16T06:23:03.749Z,90.23
2022-11-16T06:25:31.907Z,90.12
2022-11-16T06:28:02.962Z,90.79
2022-11-16T06:30:34.945Z,90.33
2022-11-16T06:33:03.090Z,90.05
2022-11-16T06:35:31.219Z,89.95
2022-11-16T06:37:59.856Z,90.03
2022-11-16T06:40:27.964Z,90.12
2022-11-16T06:42:57.172Z,90.07
2022-11-16T06:45:25.271Z,90.94
2022-11-16T06:47:54.821Z,89.91
2022-11-16T06:50:22.956Z,89.92
2022-11-16T06:52:51.394Z,90.01
2022-11-16T06:55:19.602Z,89.87
2022-11-16T06:57:47.769Z,89.92
2022-11-16T07:00:16.963Z,90.41
2022-11-16T07:02:45.071Z,90.11
2022-11-16T07:05:14.665Z,90.77
2022-11-16T07:07:42.886Z,90.30
2022-11-16T07:10:11.558Z,90.23
2022-11-16T07:12:42.463Z,90.31
2022-11-16T07:15:11.466Z,90.18
2022-11-16T07:17:40.022Z,90.08
2022-11-16T07:20:08.844Z,90.09
2022-11-16T07:22:38.527Z,90.18
2022-11-16T07:25:07.889Z,90.47
2022-11-16T07:27:36.043Z,90.06
2022-11-16T07:30:04.644Z,90.49
2022-11-16T07:32:32.804Z,89.92
2022-11-16T07:35:00.932Z,90.40
2022-11-16T07:37:29.122Z,90.37
2022-11-16T07:39:58.604Z,89.83
2022-11-16T07:42:26.768Z,90.20
2022-11-16T07:44:54.885Z,90.10
2022-11-16T07:47:23.056Z,90.32
2022-11-16T07:49:51.230Z,90.38
2022-11-16T07:52:19.381Z,90.01
2022-11-16T07:54:47.510Z,89.98
2022-11-16T07:57:17.037Z,90.07
2022-11-16T07:59:45.167Z,90.11
2022-11-16T08:02:13.361Z,90.13
2022-11-16T08:04:41.525Z,90.65
2022-11-16T08:07:09.699Z,90.09
2022-11-16T08:09:39.495Z,90.43
2022-11-16T08:12:07.912Z,90.16
2022-11-16T08:14:37.440Z,90.37
2022-11-16T08:17:07.258Z,90.21
2022-11-16T08:19:36.582Z,89.96
2022-11-16T08:22:04.906Z,90.34
2022-11-16T08:24:33.161Z,89.96
2022-11-16T08:27:01.321Z,90.44
2022-11-16T08:29:29.458Z,90.52
2022-11-16T08:31:59.062Z,90.29
2022-11-16T08:34:27.233Z,89.85
2022-11-16T08:36:55.370Z,89.60
2022-11-16T08:39:23.528Z,89.76
2022-11-16T08:41:51.951Z,89.94
2022-11-16T08:44:20.109Z,89.71
2022-11-16T08:46:48.239Z,90.03
2022-11-16T08:49:17.853Z,89.92
2022-11-16T08:51:45.981Z,89.81
2022-11-16T08:54:14.145Z,89.87
2022-11-16T08:56:42.336Z,89.49
2022-11-16T08:59:11.208Z,89.60
2022-11-16T09:01:39.383Z,89.79
2022-11-16T09:04:07.570Z,89.36
2022-11-16T09:06:37.446Z,89.43
2022-11-16T09:09:06.027Z,89.40
2022-11-16T09:11:34.290Z,89.40
2022-11-16T09:14:02.422Z,89.64
2022-11-16T09:16:30.670Z,89.23
2022-11-16T09:18:58.807Z,89.33
2022-11-16T09:21:28.279Z,89.47
2022-11-16T09:23:58.748Z,89.36
2022-11-16T09:26:27.247Z,89.27
2022-11-16T09:28:58.020Z,89.16
2022-11-16T09:31:27.411Z,88.98
2022-11-16T09:33:58.154Z,89.21
2022-11-16T09:36:27.227Z,89.07
2022-11-16T09:39:29.693Z,89.12
2022-11-16T09:42:02.485Z,88.93
2022-11-16T09:44:53.792Z,89.11
2022-11-16T09:47:25.047Z,88.82
2022-11-16T09:49:58.204Z,89.01
2022-11-16T09:52:34.285Z,89.04
2022-11-16T09:55:04.795Z,88.83
2022-11-16T09:57:37.474Z,88.71
2022-11-16T10:00:14.092Z,88.68
2022-11-16T10:02:45.300Z,88.79
2022-11-16T10:05:19.191Z,88.97
2022-11-16T10:07:49.507Z,89.03
2022-11-16T10:10:19.192Z,89.15
2022-11-16T10:12:52.950Z,88.83
2022-11-16T10:15:32.707Z,88.82
2022-11-16T10:18:08.136Z,88.90
2022-11-16T10:20:48.848Z,88.99
2022-11-16T10:23:23.758Z,88.80
2022-11-16T10:25:54.481Z,88.82
2022-11-16T10:28:42.206Z,88.71
2022-11-16T10:31:18.064Z,88.59
2022-11-16T10:33:48.084Z,88.74
2022-11-16T10:36:17.433Z,88.63
2022-11-16T10:38:46.494Z,88.55
2022-11-16T10:41:19.740Z,88.67
2022-11-16T10:43:49.535Z,88.44
2022-11-16T10:46:21.881Z,88.44
2022-11-16T10:48:58.821Z,88.61
2022-11-16T10:51:26.969Z,88.29
2022-11-16T10:53:56.052Z,88.12
2022-11-16T10:56:27.121Z,88.19
2022-11-16T10:59:01.135Z,88.31
2022-11-16T11:01:36.394Z,88.20
2022-11-16T11:04:20.753Z,88.16
2022-11-16T11:06:51.404Z,88.07
2022-11-16T11:09:28.066Z,88.23
2022-11-16T11:12:18.168Z,88.36
2022-11-16T11:15:27.576Z,88.25
2022-11-16T11:18:26.446Z,88.32
2022-11-16T11:21:07.896Z,88.35
2022-11-16T11:23:43.333Z,88.12
2022-11-16T11:26:35.914Z,88.13
2022-11-16T11:29:10.759Z,88.08
2022-11-16T11:31:44.177Z,88.13
2022-11-16T11:34:18.944Z,88.18
2022-11-16T11:36:49.736Z,88.38
2022-11-16T11:39:32.718Z,87.97
2022-11-16T11:42:21.620Z,87.97
2022-11-16T11:44:57.098Z,88.03
2022-11-16T11:48:00.368Z,88.09
2022-11-16T11:50:39.938Z,87.96
2022-11-16T11:53:12.719Z,88.04
2022-11-16T11:55:40.917Z,88.08
2022-11-16T11:58:16.365Z,88.08
2022-11-16T12:00:54.186Z,88.06
2022-11-16T12:04:00.868Z,87.80
2022-11-16T12:06:38.698Z,88.14
2022-11-16T12:09:32.635Z,88.10
2022-11-16T12:12:15.649Z,88.14
2022-11-16T12:14:59.972Z,88.03
2022-11-16T12:17:35.934Z,88.04
2022-11-16T12:20:34.277Z,87.97
2022-11-16T12:23:15.984Z,88.07
2022-11-16T12:25:51.046Z,87.92
2022-11-16T12:28:31.154Z,87.87
2022-11-16T12:31:10.182Z,87.94
2022-11-16T12:33:46.126Z,87.89
2022-11-16T12:36:22.420Z,87.98
2022-11-16T12:39:00.152Z,88.11
2022-11-16T12:42:05.357Z,87.87
2022-11-16T12:44:43.969Z,87.78
2022-11-16T12:47:22.732Z,87.88
2022-11-16T12:50:21.622Z,88.06
2022-11-16T12:53:03.811Z,87.82
2022-11-16T12:55:39.712Z,87.89
2022-11-16T12:58:15.518Z,87.92
2022-11-16T13:00:56.691Z,87.77
2022-11-16T13:03:30.468Z,87.57
2022-11-16T13:06:03.286Z,87.55
2022-11-16T13:08:42.495Z,87.66
2022-11-16T13:11:15.939Z,87.75
2022-11-16T13:13:51.490Z,87.57
2022-11-16T13:16:21.389Z,87.82
2022-11-16T13:18:49.535Z,87.67
2022-11-16T13:21:24.726Z,87.69
2022-11-16T13:24:03.083Z,87.83
2022-11-16T13:26:37.024Z,88.03
2022-11-16T13:29:14.142Z,87.95
2022-11-16T13:31:48.639Z,88.17
2022-11-16T13:34:21.540Z,88.39
2022-11-16T13:36:49.875Z,88.35
2022-11-16T13:39:22.544Z,88.49
2022-11-16T13:42:06.091Z,88.49
2022-11-16T13:44:34.717Z,88.63
2022-11-16T13:47:05.245Z,88.75
2022-11-16T13:49:36.548Z,88.80
2022-11-16T13:52:22.667Z,88.91
2022-11-16T13:54:54.379Z,88.90
2022-11-16T13:57:27.296Z,88.74
2022-11-16T14:00:10.698Z,89.09
2022-11-16T14:02:40.048Z,88.97
2022-11-16T14:05:17.486Z,89.04
2022-11-16T14:07:49.623Z,88.92
2022-11-16T14:10:56.871Z,89.39
2022-11-16T14:13:44.251Z,89.16
2022-11-16T14:16:55.056Z,89.11
2022-11-16T14:19:54.882Z,89.22
2022-11-16T14:22:45.717Z,88.89
2022-11-16T14:25:27.430Z,89.16
2022-11-16T14:28:01.559Z,89.04
2022-11-16T14:30:36.383Z,89.27
2022-11-16T14:33:04.699Z,89.16
2022-11-16T14:35:36.555Z,89.10
2022-11-16T14:38:07.364Z,88.96
2022-11-16T14:40:42.861Z,89.13
2022-11-16T14:43:17.933Z,89.03
2022-11-16T14:45:53.153Z,88.92
2022-11-16T14:48:23.361Z,89.17
2022-11-16T14:51:05.360Z,89.15
2022-11-16T14:53:34.683Z,89.16
2022-11-16T14:56:11.870Z,89.06
2022-11-16T14:58:40.544Z,89.02
2022-11-16T15:01:15.712Z,89.03
2022-11-16T15:03:56.423Z,89.07
2022-11-16T15:06:26.466Z,88.96
2022-11-16T15:08:58.058Z,89.26
2022-11-16T15:11:48.582Z,89.02
2022-11-16T15:14:20.799Z,89.04
2022-11-16T15:16:55.554Z,89.30
2022-11-16T15:19:24.029Z,89.30
2022-11-16T15:21:53.923Z,89.22
2022-11-16T15:24:31.432Z,89.40
2022-11-16T15:27:10.809Z,89.41
2022-11-16T15:29:42.243Z,89.60
2022-11-16T15:32:17.181Z,89.31
2022-11-16T15:34:49.068Z,89.50
2022-11-16T15:37:27.957Z,89.53
2022-11-16T15:39:56.906Z,89.55
2022-11-16T15:42:26.784Z,89.58
2022-11-16T15:44:55.484Z,89.57
2022-11-16T15:47:25.492Z,89.62
2022-11-16T15:49:53.948Z,89.33
2022-11-16T15:52:50.136Z,89.69
2022-11-16T15:55:23.867Z,89.43
2022-11-16T15:58:00.846Z,89.75
2022-11-16T16:00:30.011Z,89.98
2022-11-16T16:03:04.077Z,89.33
2022-11-16T16:05:37.118Z,89.63
2022-11-16T16:08:06.193Z,89.73
2022-11-16T16:10:34.559Z,89.52
2022-11-16T16:13:04.010Z,89.42
2022-11-16T16:15:36.155Z,89.34
2022-11-16T16:18:34.456Z,89.46
2022-11-16T16:21:03.901Z,89.45
2022-11-16T16:23:32.394Z,89.45
2022-11-16T16:26:04.846Z,89.61
2022-11-16T16:28:32.969Z,89.50
2022-11-16T16:31:01.114Z,89.54
2022-11-16T16:33:31.093Z,89.69
2022-11-16T16:35:59.214Z,89.44
2022-11-16T16:38:27.343Z,89.45
2022-11-16T16:41:00.421Z,89.51
2022-11-16T16:43:28.765Z,89.64
2022-11-16T16:45:57.121Z,89.66
2022-11-16T16:48:25.292Z,89.64
2022-11-16T16:50:54.763Z,89.60
2022-11-16T16:53:22.916Z,89.65
2022-11-16T16:55:51.071Z,89.49
2022-11-16T16:58:19.207Z,89.42
2022-11-16T17:00:47.408Z,89.34
2022-11-16T17:03:15.577Z,89.08
2022-11-16T17:05:44.605Z,89.16
2022-11-16T17:08:14.131Z,89.09
2022-11-16T17:10:42.267Z,89.09
2022-11-16T17:13:10.922Z,89.03
2022-11-16T17:15:39.240Z,89.24
2022-11-16T17:18:07.475Z,88.94
2022-11-16T17:20:35.605Z,88.98
2022-11-16T17:23:03.753Z,88.95
2022-11-16T17:25:33.570Z,88.82
2022-11-16T17:28:01.742Z,88.64
2022-11-16T17:30:30.093Z,88.60
2022-11-16T17:32:58.254Z,88.40
2022-11-16T17:35:26.378Z,88.47
2022-11-16T17:37:54.540Z,88.27
2022-11-16T17:40:22.690Z,88.39
2022-11-16T17:42:52.185Z,87.93
2022-11-16T17:45:20.343Z,87.86
2022-11-16T17:47:48.507Z,87.98
2022-11-16T17:50:16.789Z,88.08
2022-11-16T17:52:44.908Z,87.81
2022-11-16T17:55:13.040Z,87.23
2022-11-16T17:57:41.181Z,87.27
2022-11-16T18:00:12.193Z,86.65
2022-11-16T18:02:40.324Z,87.41
2022-11-16T18:05:09.103Z,87.59
2022-11-16T18:07:38.470Z,87.14
2022-11-16T18:10:07.937Z,87.43
2022-11-16T18:12:36.036Z,87.12
2022-11-16T18:15:27.431Z,87.47
2022-11-16T18:17:53.825Z,87.11
2022-11-16T18:20:22.578Z,87.34
2022-11-16T18:22:50.731Z,87.21
2022-11-16T18:25:18.953Z,86.72
2022-11-16T18:27:50.768Z,86.84
2022-11-16T18:30:19.079Z,86.82
2022-11-16T18:32:47.233Z,86.22
2022-11-16T18:35:17.344Z,86.39
2022-11-16T18:37:45.456Z,86.53
2022-11-16T18:40:15.031Z,86.47
2022-11-16T18:42:43.176Z,86.53
2022-11-16T18:45:11.653Z,86.48
2022-11-16T18:47:39.805Z,86.32
2022-11-16T18:50:18.089Z,86.33
2022-11-16T18:52:49.752Z,86.62
2022-11-16T18:55:18.137Z,86.43
2022-11-16T18:57:46.250Z,86.13
2022-11-16T19:00:19.428Z,85.71
2022-11-16T19:02:47.566Z,85.91
2022-11-16T19:05:15.915Z,85.42
2022-11-16T19:07:44.067Z,85.81
2022-11-16T19:10:13.690Z,85.33
2022-11-16T19:12:41.901Z,85.45
2022-11-16T19:15:10.567Z,85.80
2022-11-16T19:17:59.285Z,85.71
2022-11-16T19:20:27.039Z,85.50
2022-11-16T19:22:55.178Z,85.77
2022-11-16T19:25:24.707Z,85.99
2022-11-16T19:27:52.885Z,85.77
2022-11-16T19:30:21.109Z,85.57
2022-11-16T19:32:49.405Z,85.39
2022-11-16T19:35:17.681Z,86.04
2022-11-16T19:37:45.770Z,85.40
2022-11-16T19:40:14.294Z,85.53
2022-11-16T19:42:43.940Z,85.26
2022-11-16T19:45:12.936Z,85.53
2022-11-16T19:47:41.048Z,85.45
2022-11-16T19:50:11.873Z,85.40
2022-11-16T19:52:40.053Z,84.88
2022-11-16T19:55:08.800Z,85.11
2022-11-16T19:57:36.948Z,85.03
2022-11-16T20:00:07.659Z,85.10
2022-11-16T20:02:36.535Z,85.17
2022-11-16T20:05:04.951Z,84.90
2022-11-16T20:07:33.147Z,85.22
2022-11-16T20:10:01.293Z,84.96
2022-11-16T20:12:29.410Z,84.69
2022-11-16T20:14:57.550Z,84.83
2022-11-16T20:17:27.067Z,84.68
2022-11-16T20:19:55.263Z,84.79
2022-11-16T20:22:23.439Z,84.56
2022-11-16T20:24:52.002Z,84.79
2022-11-16T20:27:20.123Z,84.73
2022-11-16T20:29:48.236Z,84.61
2022-11-16T20:32:16.380Z,84.51
2022-11-16T20:34:45.885Z,84.51
2022-11-16T20:37:14.213Z,84.49
2022-11-16T20:39:42.999Z,84.89
2022-11-16T20:42:11.151Z,84.99
2022-11-16T20:44:39.257Z,85.18
2022-11-16T20:47:07.402Z,84.98
2022-11-16T20:49:35.586Z,84.61
2022-11-16T20:52:05.357Z,84.81
2022-11-16T20:54:33.709Z,84.61
2022-11-16T20:57:01.841Z,84.80
2022-11-16T20:59:29.997Z,85.02
2022-11-16T21:01:58.121Z,85.05
2022-11-16T21:04:26.275Z,84.86
2022-11-16T21:06:54.489Z,85.15
2022-11-16T21:09:26.552Z,83.44
2022-11-16T21:12:12.591Z,84.70
2022-11-16T21:14:40.711Z,84.83
2022-11-16T21:17:08.857Z,84.75
2022-11-16T21:19:36.990Z,84.57
2022-11-16T21:22:05.117Z,84.91
2022-11-16T21:24:34.811Z,84.81
2022-11-16T21:27:02.932Z,84.79
2022-11-16T21:29:31.062Z,84.67
2022-11-16T21:31:59.381Z,84.28
2022-11-16T21:34:28.664Z,84.38
2022-11-16T21:36:56.816Z,84.82
2022-11-16T21:39:25.227Z,84.42
2022-11-16T21:41:54.855Z,84.28
2022-11-16T21:44:22.979Z,84.66
2022-11-16T21:46:51.219Z,85.02
2022-11-16T21:49:19.338Z,84.85
2022-11-16T21:51:47.468Z,84.84
2022-11-16T21:54:15.617Z,84.75
2022-11-16T21:56:43.743Z,85.03
2022-11-16T21:59:13.250Z,85.03
2022-11-16T22:01:55.286Z,84.72
2022-11-16T22:04:40.697Z,84.78
2022-11-16T22:07:31.909Z,84.60
2022-11-16T22:10:00.169Z,84.77
2022-11-16T22:12:28.367Z,84.20
2022-11-16T22:14:58.427Z,84.30
2022-11-16T22:17:26.676Z,83.88
2022-11-16T22:19:54.847Z,84.54
2022-11-16T22:22:23.189Z,84.44
2022-11-16T22:24:51.568Z,84.11
2022-11-16T22:27:20.121Z,84.19
2022-11-16T22:29:48.215Z,84.21
2022-11-16T22:32:17.718Z,83.55
2022-11-16T22:34:45.833Z,83.89
2022-11-16T22:37:13.940Z,84.02
2022-11-16T22:39:42.117Z,81.81
2022-11-16T22:42:11.402Z,83.18
2022-11-16T22:44:39.548Z,83.56
2022-11-16T22:47:07.686Z,83.49
2022-11-16T22:49:37.206Z,83.12
2022-11-16T22:52:05.543Z,83.56
2022-11-16T22:54:34.643Z,83.44
2022-11-16T22:57:03.294Z,83.84
2022-11-16T22:59:31.421Z,83.06
2022-11-16T23:02:00.973Z,83.37
2022-11-16T23:04:29.064Z,83.13
2022-11-16T23:06:58.825Z,83.26
2022-11-16T23:09:26.965Z,83.14
2022-11-16T23:12:12.759Z,82.65
2022-11-16T23:14:58.187Z,83.39
2022-11-16T23:17:26.306Z,83.17
2022-11-16T23:20:17.296Z,83.72
2022-11-16T23:23:04.572Z,83.49
2022-11-16T23:25:50.636Z,83.69
2022-11-16T23:28:20.180Z,83.87
2022-11-16T23:30:48.558Z,82.80
2022-11-16T23:33:16.708Z,83.69
2022-11-16T23:35:44.870Z,83.46
2022-11-16T23:38:14.364Z,83.62
2022-11-16T23:40:42.504Z,83.60
2022-11-16T23:43:28.888Z,83.78
2022-11-16T23:45:57.148Z,83.62
2022-11-16T23:48:25.260Z,83.70
2022-11-16T23:50:53.412Z,83.46
2022-11-16T23:53:22.894Z,83.36
2022-11-16T23:55:51.093Z,83.09
2022-11-16T23:58:19.219Z,83.28
